Time;durP1;ratioP1;P1;durP2;ratioP2;P2;SDS_P1;SDS_P2;PMS_P1;PMS_P2;Temp;Humidity;BMP_temperature;BMP_pressure;BME280_temperature;BME280_humidity;BME280_pressure;Samples;Min_cycle;Max_cycle;Signal;HPM_P1;HPM_P2
2021/06/02 00:00:29;;;;;;;3.60;2.03;;;;;;;11.15;65.02;98789.03;5050663;28;20480;-89
2021/06/02 00:03:00;;;;;;;7.35;2.50;;;;;;;11.25;64.64;98798.72;5047405;28;20060;-89
2021/06/02 00:05:28;;;;;;;4.28;2.53;;;;;;;11.42;64.46;98805.53;5047075;28;20072;-89
2021/06/02 00:08:03;;;;;;;4.57;2.80;;;;;;;11.33;64.12;98801.28;5053665;28;20045;-89
2021/06/02 00:10:29;;;;;;;3.75;1.90;;;;;;;11.53;63.83;98815.00;5049049;28;20057;-89
2021/06/02 00:12:56;;;;;;;2.88;2.20;;;;;;;11.29;64.18;98800.84;5051783;28;20048;-89
2021/06/02 00:15:24;;;;;;;2.95;2.22;;;;;;;11.15;64.23;98804.50;5051385;28;20064;-89
2021/06/02 00:18:18;;;;;;;3.78;2.03;;;;;;;10.77;65.66;98807.53;5050470;28;20131;-90
2021/06/02 00:20:51;;;;;;;4.90;2.13;;;;;;;10.70;66.38;98795.75;5050382;28;20053;-89
2021/06/02 00:23:19;;;;;;;2.40;1.52;;;;;;;10.84;65.98;98807.56;5050403;28;20440;-89
2021/06/02 00:25:48;;;;;;;3.60;2.30;;;;;;;10.78;65.34;98801.06;5044469;28;20132;-89
2021/06/02 00:28:16;;;;;;;5.25;2.15;;;;;;;10.44;66.18;98800.72;5048545;28;20057;-89
2021/06/02 00:30:45;;;;;;;2.20;2.00;;;;;;;10.17;67.21;98777.00;5045234;28;20284;-89
2021/06/02 00:33:16;;;;;;;3.97;2.20;;;;;;;10.13;67.93;98797.41;5051785;28;20072;-90
2021/06/02 00:35:43;;;;;;;4.40;2.40;;;;;;;10.20;67.85;98799.16;5050348;28;20049;-89
2021/06/02 00:38:11;;;;;;;4.47;2.63;;;;;;;10.19;68.09;98792.06;5042485;28;20102;-89
2021/06/02 00:40:45;;;;;;;2.80;2.30;;;;;;;10.18;68.29;98801.25;5050369;28;20075;-89
2021/06/02 00:43:15;;;;;;;2.58;1.77;;;;;;;10.03;69.29;98793.13;5043538;28;20544;-90
2021/06/02 00:46:00;;;;;;;3.85;1.90;;;;;;;10.36;68.71;98827.19;5045534;28;20053;-89
2021/06/02 00:48:38;;;;;;;;;;;;;;;;;;;;;
2021/06/02 00:52:05;;;;;;;2.28;1.85;;;;;;;10.14;68.24;98796.38;5049824;28;20055;-90
2021/06/02 01:00:37;;;;;;;2.53;1.95;;;;;;;9.97;68.08;98818.34;5028166;28;20315;-89
2021/06/02 01:07:04;;;;;;;3.58;2.30;;;;;;;9.74;69.19;98827.44;4890882;29;20636;-89
2021/06/02 01:09:44;;;;;;;;;;;;;;;;;;;;;
2021/06/02 01:15:46;;;;;;;4.40;2.42;;;;;;;9.52;70.60;98815.63;4983923;28;20109;-89
2021/06/02 01:18:13;;;;;;;2.85;2.10;;;;;;;9.49;70.75;98828.75;5026400;28;20053;-89
2021/06/02 01:20:40;;;;;;;4.15;2.22;;;;;;;9.46;70.10;98808.25;5050370;28;20393;-89
2021/06/02 01:23:09;;;;;;;3.10;2.45;;;;;;;9.73;68.92;98833.06;5051159;28;20585;-89
2021/06/02 01:25:36;;;;;;;2.88;2.00;;;;;;;9.57;69.31;98798.78;5050137;28;20056;-89
2021/06/02 01:28:03;;;;;;;2.53;2.00;;;;;;;9.56;68.97;98816.13;5048229;28;20049;-89
2021/06/02 01:30:35;;;;;;;2.50;2.28;;;;;;;9.34;70.03;98826.84;5051740;28;20497;-89
2021/06/02 01:36:24;;;;;;;2.53;2.20;;;;;;;9.14;70.82;98831.97;5035129;28;20195;-89
2021/06/02 01:39:22;;;;;;;4.25;2.40;;;;;;;8.91;71.31;98807.59;5042470;28;20080;-89
2021/06/02 01:42:33;;;;;;;3.50;2.10;;;;;;;9.04;70.86;98824.06;5048596;28;20060;-89
2021/06/02 01:45:42;;;;;;;5.88;2.40;;;;;;;9.18;70.44;98833.28;5050883;28;20069;-89
2021/06/02 01:48:32;;;;;;;1.95;1.73;;;;;;;8.98;70.96;98811.25;5046158;28;20397;-89
2021/06/02 01:51:35;;;;;;;5.53;2.20;;;;;;;9.04;71.69;98832.22;5044427;28;20053;-89
2021/06/02 01:54:18;;;;;;;3.13;2.17;;;;;;;8.72;72.39;98816.25;5037089;28;20076;-89
2021/06/02 01:57:23;;;;;;;5.93;2.40;;;;;;;8.59;73.05;98809.53;5048953;28;20041;-89
2021/06/02 02:00:16;;;;;;;4.47;2.45;;;;;;;8.73;72.91;98834.16;5054961;28;20049;-90
2021/06/02 02:03:07;;;;;;;3.35;2.35;;;;;;;8.59;73.00;98822.25;5051586;28;20544;-88
2021/06/02 02:06:17;;;;;;;2.53;2.33;;;;;;;8.60;73.59;98843.75;5053566;28;20053;-90
2021/06/02 02:08:54;;;;;;;3.10;2.50;;;;;;;8.71;73.05;98819.97;5054002;28;20053;-89
2021/06/02 02:11:42;;;;;;;3.15;2.30;;;;;;;8.62;73.45;98819.19;5054236;28;20141;-89
2021/06/02 02:14:52;;;;;;;5.28;2.50;;;;;;;8.78;73.21;98840.75;5049911;28;20464;-88
2021/06/02 02:17:30;;;;;;;3.30;2.38;;;;;;;8.59;73.16;98825.81;5047572;28;20060;-87
2021/06/02 02:20:01;;;;;;;4.68;2.38;;;;;;;8.43;73.53;98806.91;5054545;28;20049;-88
2021/06/02 02:22:45;;;;;;;4.13;2.30;;;;;;;8.41;73.99;98820.63;5047226;28;20489;-89
2021/06/02 02:25:21;;;;;;;2.58;2.10;;;;;;;8.43;73.06;98815.91;5049843;28;20148;-88
2021/06/02 02:28:02;;;;;;;3.90;2.15;;;;;;;8.52;73.02;98833.00;5051190;28;20065;-88
2021/06/02 02:30:42;;;;;;;2.95;2.40;;;;;;;8.39;72.82;98833.53;5052324;28;20052;-88
2021/06/02 02:33:20;;;;;;;2.47;2.20;;;;;;;8.38;72.83;98822.88;5054621;28;20428;-88
2021/06/02 02:35:58;;;;;;;5.40;2.33;;;;;;;8.24;72.91;98830.75;5049256;28;20064;-89
2021/06/02 02:38:38;;;;;;;3.30;2.22;;;;;;;8.12;72.76;98835.72;5053379;28;20053;-89
2021/06/02 02:41:22;;;;;;;4.13;2.03;;;;;;;8.22;72.58;98831.94;5053340;28;20059;-88
2021/06/02 02:44:01;;;;;;;4.43;2.22;;;;;;;8.39;72.91;98859.78;5047917;28;20053;-88
2021/06/02 03:13:57;;;;;;;4.47;2.30;;;;;;;7.89;75.17;98865.44;4989305;28;20045;-88
2021/06/02 03:16:30;;;;;;;4.15;2.47;;;;;;;7.85;75.79;98876.78;4992931;28;20534;-88
2021/06/02 03:19:08;;;;;;;7.75;3.00;;;;;;;7.60;75.49;98841.66;5002519;28;20136;-88
2021/06/02 03:21:52;;;;;;;2.78;2.08;;;;;;;7.79;75.01;98872.91;5050617;28;20052;-88
2021/06/02 03:24:35;;;;;;;5.18;2.35;;;;;;;7.64;75.06;98843.03;5042397;28;20049;-88
2021/06/02 03:27:08;;;;;;;2.63;2.20;;;;;;;7.80;74.01;98852.97;5052148;28;20451;-88
2021/06/02 03:29:45;;;;;;;8.55;2.70;;;;;;;7.80;73.52;98878.16;5052417;28;20059;-88
2021/06/02 03:32:19;;;;;;;7.18;4.38;;;;;;;7.51;74.04;98837.31;5052717;28;20480;-88
2021/06/02 03:34:59;;;;;;;6.30;3.33;;;;;;;7.38;74.48;98865.75;5048539;28;20053;-88
2021/06/02 03:37:29;;;;;;;;;;;;;;;7.34;75.03;98869.78;5052102;28;20091;-88
2021/06/02 03:40:09;;;;;;;3.42;2.25;;;;;;;7.22;75.85;98871.16;5052930;28;19921;-88
2021/06/02 03:42:44;;;;;;;3.30;2.25;;;;;;;7.41;75.54;98881.63;5049250;28;20382;-88
2021/06/02 03:45:24;;;;;;;7.22;2.35;;;;;;;7.38;75.08;98854.91;5053009;28;20045;-88
2021/06/02 03:47:58;;;;;;;3.55;2.30;;;;;;;7.48;75.03;98859.28;5051860;28;20106;-88
2021/06/02 03:50:29;;;;;;;7.72;2.47;;;;;;;7.43;75.12;98863.34;5048081;28;20047;-88
2021/06/02 03:53:17;;;;;;;4.47;2.75;;;;;;;7.47;75.11;98884.63;5052528;28;20059;-88
2021/06/02 03:55:48;;;;;;;5.28;2.75;;;;;;;7.60;74.36;98877.69;5051894;28;20075;-88
2021/06/02 03:58:28;;;;;;;3.88;2.50;;;;;;;7.62;74.06;98877.53;5049659;28;20060;-88
2021/06/02 04:01:04;;;;;;;2.33;2.00;;;;;;;7.51;74.41;98883.28;5051989;28;20435;-88
2021/06/02 04:03:48;;;;;;;5.10;2.45;;;;;;;7.46;74.62;98873.00;5048701;28;20136;-88
2021/06/02 04:06:23;;;;;;;3.00;2.70;;;;;;;7.38;75.48;98857.63;5039382;28;20045;-89
2021/06/02 04:08:57;;;;;;;3.65;2.83;;;;;;;7.34;75.78;98860.84;5046990;28;20053;-88
2021/06/02 04:11:36;;;;;;;6.53;3.10;;;;;;;7.36;76.00;98864.22;5051376;28;20049;-88
2021/06/02 04:14:05;;;;;;;3.65;2.63;;;;;;;7.48;75.84;98865.53;5051237;28;20053;-88
2021/06/02 04:16:33;;;;;;;5.32;2.55;;;;;;;7.79;74.99;98886.44;5050696;28;20053;-88
2021/06/02 04:19:02;;;;;;;3.58;3.03;;;;;;;7.62;75.80;98866.72;5051899;28;20041;-88
2021/06/02 04:21:33;;;;;;;3.00;2.40;;;;;;;7.63;75.81;98868.38;5049709;28;20524;-88
2021/06/02 04:24:03;;;;;;;5.10;2.47;;;;;;;7.74;75.72;98870.72;5044526;28;20049;-88
2021/06/02 04:26:31;;;;;;;3.33;2.70;;;;;;;7.82;76.27;98871.72;5052870;28;20057;-88
2021/06/02 04:29:00;;;;;;;4.43;2.42;;;;;;;7.91;76.03;98882.34;5051643;28;20424;-88
2021/06/02 04:31:28;;;;;;;2.45;2.15;;;;;;;7.90;76.89;98874.38;5051757;28;20084;-88
2021/06/02 04:33:58;;;;;;;4.80;3.08;;;;;;;7.90;77.45;98877.97;5051208;28;20064;-88
2021/06/02 04:36:26;;;;;;;3.45;2.70;;;;;;;7.96;77.54;98887.22;5045402;28;20056;-88
2021/06/02 04:38:57;;;;;;;3.35;2.60;;;;;;;8.00;76.89;98879.59;5050757;28;20086;-88
2021/06/02 04:41:25;;;;;;;5.18;3.17;;;;;;;8.12;76.46;98886.31;5048540;28;20041;-89
2021/06/02 04:43:53;;;;;;;3.75;3.25;;;;;;;8.30;75.71;98897.72;5048060;28;20412;-88
2021/06/02 04:46:21;;;;;;;4.15;3.38;;;;;;;8.39;75.84;98897.72;5044381;28;20049;-88
2021/06/02 04:48:48;;;;;;;7.72;3.15;;;;;;;8.23;76.11;98874.25;5051593;28;20069;-88
2021/06/02 04:52:02;;;;;;;3.75;2.85;;;;;;;8.43;76.56;98902.59;5052100;28;20049;-88
2021/06/02 04:55:00;;;;;;;4.10;3.13;;;;;;;8.60;75.86;98884.41;5049973;28;20049;-87
2021/06/02 04:57:48;;;;;;;3.75;3.17;;;;;;;8.91;75.84;98885.38;5045296;28;20125;-88
2021/06/02 05:00:30;;;;;;;5.85;3.22;;;;;;;9.91;71.63;98892.41;5049983;28;20542;-88
2021/06/02 05:03:37;;;;;;;6.15;3.70;;;;;;;11.27;67.71;98900.88;5051822;28;20063;-88
2021/06/02 05:06:45;;;;;;;4.28;3.17;;;;;;;12.16;64.02;98904.91;5048202;28;20057;-87
2021/06/02 05:09:45;;;;;;;4.03;2.83;;;;;;;12.77;61.50;98902.38;5022817;28;20048;-89
2021/06/02 05:12:48;;;;;;;7.85;3.08;;;;;;;13.23;60.28;98907.09;5037399;28;20107;-88
2021/06/02 05:15:52;;;;;;;7.95;3.15;;;;;;;13.92;59.75;98911.31;5051147;28;20416;-89
2021/06/02 05:18:54;;;;;;;6.55;3.22;;;;;;;13.92;57.49;98907.75;5050813;28;20061;-89
2021/06/02 05:22:05;;;;;;;8.20;2.75;;;;;;;14.45;55.10;98901.28;5050797;28;20535;-89
2021/06/02 05:25:16;;;;;;;2.58;2.10;;;;;;;13.92;57.15;98894.06;5026287;28;20056;-89
2021/06/02 05:28:38;;;;;;;3.42;2.67;;;;;;;14.62;56.32;98891.56;5033193;28;20087;-90
2021/06/02 05:31:31;;;;;;;6.10;3.03;;;;;;;15.37;53.66;98911.94;5051091;28;20049;-89
2021/06/02 05:34:50;;;;;;;3.90;2.80;;;;;;;15.69;53.06;98901.78;5051418;28;20044;-90
2021/06/02 05:38:09;;;;;;;5.57;2.77;;;;;;;15.93;53.44;98911.06;5013824;28;20413;-90
2021/06/02 05:40:48;;;;;;;4.13;2.60;;;;;;;16.31;51.70;98900.97;5046581;28;20302;-90
2021/06/02 05:43:52;;;;;;;6.90;2.40;;;;;;;16.41;51.48;98914.13;5050779;28;20496;-89
2021/06/02 05:46:54;;;;;;;10.25;3.20;;;;;;;15.74;52.27;98912.88;5052349;28;20049;-90
2021/06/02 05:49:47;;;;;;;7.22;2.55;;;;;;;16.27;50.67;98903.34;5054029;28;20045;-89
2021/06/02 05:52:39;;;;;;;9.85;2.92;;;;;;;16.99;49.39;98916.34;5054158;28;20049;-89
2021/06/02 05:55:28;;;;;;;8.77;2.92;;;;;;;16.99;49.69;98910.88;5044113;28;20331;-89
2021/06/02 05:58:36;;;;;;;8.27;2.80;;;;;;;16.77;50.33;98898.69;5052066;28;20280;-89
2021/06/02 06:01:36;;;;;;;4.97;2.75;;;;;;;16.95;49.19;98908.81;4980903;28;20042;-90
2021/06/02 06:04:45;;;;;;;5.72;2.88;;;;;;;17.16;49.53;98918.44;5044989;28;20089;-89
2021/06/02 06:07:35;;;;;;;8.32;3.53;;;;;;;17.64;48.01;98895.53;5043485;28;20045;-89
2021/06/02 06:10:35;;;;;;;;;;;;;;;17.95;48.42;98910.00;5053145;28;20055;-89
2021/06/02 06:13:28;;;;;;;6.20;2.85;;;;;;;18.36;47.68;98910.91;5050038;28;19927;-89
2021/06/02 06:16:33;;;;;;;9.43;2.72;;;;;;;18.69;46.18;98906.66;5004144;28;20052;-89
2021/06/02 06:19:25;;;;;;;9.23;2.83;;;;;;;18.28;45.92;98883.78;5050931;28;20131;-89
2021/06/02 06:22:39;;;;;;;10.88;3.22;;;;;;;18.70;46.33;98899.25;5046826;28;20564;-89
2021/06/02 06:25:12;;;;;;;10.88;3.15;;;;;;;18.79;45.62;98910.69;4990764;28;20250;-89
2021/06/02 06:27:48;;;;;;;5.13;2.63;;;;;;;19.07;45.12;98924.53;4991581;28;20058;-89
2021/06/02 06:30:19;;;;;;;5.03;2.65;;;;;;;18.75;44.82;98896.59;5032142;28;20060;-89
2021/06/02 06:32:52;;;;;;;7.30;2.60;;;;;;;18.78;45.20;98903.53;5049473;28;20061;-89
2021/06/02 06:35:20;;;;;;;8.52;2.90;;;;;;;19.17;45.50;98910.09;5053231;28;20076;-89
2021/06/02 06:37:49;;;;;;;3.20;2.60;;;;;;;19.30;44.51;98900.69;5052682;28;20396;-89
2021/06/02 06:40:21;;;;;;;4.32;2.60;;;;;;;19.30;44.51;98908.09;5049480;28;20048;-90
2021/06/02 06:42:52;;;;;;;5.75;2.90;;;;;;;19.52;44.11;98905.44;5050497;28;20564;-89
2021/06/02 06:45:21;;;;;;;6.43;2.63;;;;;;;19.61;42.68;98890.16;5052861;28;20048;-89
2021/06/02 06:47:49;;;;;;;4.40;2.80;;;;;;;20.05;43.13;98909.63;5053112;28;20048;-89
2021/06/02 06:50:18;;;;;;;10.00;3.03;;;;;;;20.24;43.09;98890.03;5052384;28;20041;-88
2021/06/02 06:52:50;;;;;;;7.73;2.40;;;;;;;20.41;42.02;98888.03;5053013;28;20048;-88
2021/06/02 06:55:16;;;;;;;10.73;2.92;;;;;;;20.92;40.97;98909.94;5048608;28;20083;-88
2021/06/02 06:57:45;;;;;;;11.68;2.15;;;;;;;21.11;40.60;98902.16;5053416;28;20059;-88
2021/06/02 07:00:15;;;;;;;8.73;2.55;;;;;;;21.48;40.59;98875.66;5049144;28;20041;-88
2021/06/02 07:02:44;;;;;;;11.05;2.47;;;;;;;21.84;39.54;98882.34;5048104;28;20051;-88
2021/06/02 07:05:12;;;;;;;7.85;3.20;;;;;;;22.30;38.69;98892.88;5045650;28;20057;-88
2021/06/02 07:07:43;;;;;;;6.75;2.22;;;;;;;22.22;38.62;98883.16;5052479;28;20113;-88
2021/06/02 07:10:12;;;;;;;6.20;2.67;;;;;;;22.21;37.52;98888.97;5041956;28;20053;-88
2021/06/02 07:12:40;;;;;;;10.50;2.20;;;;;;;22.30;38.58;98886.53;5049415;28;20045;-90
2021/06/02 07:15:09;;;;;;;15.60;2.50;;;;;;;22.47;37.45;98872.50;5046692;28;20064;-89
2021/06/02 07:17:49;;;;;;;11.35;2.00;;;;;;;22.57;37.15;98878.91;5052501;28;20492;-89
2021/06/02 07:20:21;;;;;;;6.53;1.95;;;;;;;22.11;36.77;98884.19;5041867;28;20052;-88
2021/06/02 07:22:51;;;;;;;9.43;1.60;;;;;;;22.52;37.08;98889.97;5051000;28;20064;-88
2021/06/02 07:25:21;;;;;;;5.53;1.45;;;;;;;22.58;34.96;98879.72;5047876;28;20044;-89
2021/06/02 07:27:49;;;;;;;7.28;2.75;;;;;;;23.19;35.53;98884.66;5051975;28;20114;-89
2021/06/02 07:30:17;;;;;;;4.68;1.70;;;;;;;23.44;31.41;98888.56;5051252;28;20469;-89
2021/06/02 07:32:46;;;;;;;13.30;1.92;;;;;;;23.25;32.61;98871.63;5052905;28;20045;-87
2021/06/02 07:35:13;;;;;;;9.23;1.80;;;;;;;23.31;33.26;98879.69;5044081;28;20465;-88
2021/06/02 07:37:40;;;;;;;11.05;2.15;;;;;;;23.43;34.20;98884.13;5054698;28;20386;-88
2021/06/02 07:40:08;;;;;;;6.43;1.92;;;;;;;23.60;33.12;98878.31;5054850;28;20071;-89
2021/06/02 07:42:35;;;;;;;9.40;2.28;;;;;;;23.63;33.85;98875.78;5054742;28;20076;-87
2021/06/02 07:45:02;;;;;;;11.13;1.73;;;;;;;23.82;32.00;98880.81;5052241;28;20519;-87
2021/06/02 07:47:29;;;;;;;3.10;1.50;;;;;;;23.51;29.39;98897.44;5046505;28;20044;-87
2021/06/02 07:53:37;;;;;;;5.00;1.35;;;;;;;23.54;32.56;98882.19;4958216;28;20060;-88
2021/06/02 07:56:04;;;;;;;3.05;1.45;;;;;;;23.57;32.89;98885.22;5029045;28;20049;-87
2021/06/02 07:58:30;;;;;;;2.55;1.30;;;;;;;23.70;32.94;98883.84;5051562;28;20155;-88
2021/06/02 08:00:57;;;;;;;2.38;1.52;;;;;;;23.61;33.75;98891.91;5054485;28;20158;-87
2021/06/02 08:03:23;;;;;;;2.80;1.15;;;;;;;23.45;30.61;98895.78;5053824;28;20496;-87
2021/06/02 08:05:50;;;;;;;4.47;1.58;;;;;;;23.40;30.44;98893.00;5051964;28;20049;-88
2021/06/02 08:08:18;;;;;;;2.10;1.45;;;;;;;23.75;32.48;98878.28;5054443;28;20432;-87
2021/06/02 08:10:50;;;;;;;5.40;1.50;;;;;;;24.02;32.38;98886.34;5051429;28;20041;-87
2021/06/02 08:13:22;;;;;;;4.38;1.83;;;;;;;23.97;30.29;98903.00;5045662;28;20145;-88
2021/06/02 08:16:03;;;;;;;3.08;1.60;;;;;;;23.83;32.13;98913.81;5058233;28;20059;-88
2021/06/02 08:18:31;;;;;;;3.95;1.33;;;;;;;23.98;31.94;98906.59;5054424;28;20045;-88
2021/06/02 08:20:59;;;;;;;2.88;1.80;;;;;;;24.21;32.19;98888.53;5046819;28;20049;-88
2021/06/02 08:23:26;;;;;;;2.17;1.20;;;;;;;24.23;29.26;98891.03;5050289;28;20079;-88
2021/06/02 08:25:54;;;;;;;2.97;1.33;;;;;;;24.18;31.23;98892.69;5048501;28;20048;-88
2021/06/02 08:28:24;;;;;;;5.03;1.70;;;;;;;24.00;30.09;98894.13;5052454;28;20074;-88
2021/06/02 08:30:51;;;;;;;5.80;1.67;;;;;;;24.14;30.50;98886.03;5051338;28;20052;-88
2021/06/02 08:33:18;;;;;;;3.08;1.50;;;;;;;24.20;29.66;98904.34;5052079;28;20463;-88
2021/06/02 08:35:44;;;;;;;5.47;1.45;;;;;;;24.07;28.25;98904.94;5043222;28;20056;-89
2021/06/02 08:38:13;;;;;;;2.83;1.42;;;;;;;24.03;30.85;98888.00;5047150;28;20049;-87
2021/06/02 08:44:19;;;;;;;9.30;1.77;;;;;;;24.62;27.35;98907.88;5034753;28;20071;-87
2021/06/02 08:46:52;;;;;;;5.82;1.45;;;;;;;24.36;25.17;98901.56;5050498;28;20552;-87
2021/06/02 08:49:22;;;;;;;2.50;1.17;;;;;;;24.35;24.87;98906.25;5033508;28;20064;-86
2021/06/02 08:52:04;;;;;;;1.77;1.10;;;;;;;24.52;24.67;98892.06;5051292;28;20106;-88
2021/06/02 08:54:40;;;;;;;1.80;1.00;;;;;;;24.56;22.27;98883.97;5049714;28;20049;-87
2021/06/02 08:57:11;;;;;;;2.63;1.05;;;;;;;25.00;23.91;98891.56;5051043;28;20049;-87
2021/06/02 08:59:48;;;;;;;0.95;0.90;;;;;;;24.82;21.92;98883.88;5045848;28;20136;-86
2021/06/02 09:02:28;;;;;;;1.75;0.93;;;;;;;24.98;20.63;98887.41;5045198;28;20504;-87
2021/06/02 09:04:57;;;;;;;3.47;0.90;;;;;;;24.78;19.01;98891.97;5039294;28;20393;-87
2021/06/02 09:07:27;;;;;;;4.53;1.10;;;;;;;24.66;20.95;98897.84;5038354;28;20485;-87
2021/06/02 09:10:01;;;;;;;;;;;;;;;25.06;23.73;98898.75;5042815;28;20465;-88
2021/06/02 09:12:40;;;;;;;1.67;1.08;;;;;;;24.78;21.35;98880.84;5048942;28;20023;-88
2021/06/02 09:15:14;;;;;;;2.78;1.08;;;;;;;25.22;23.77;98884.75;5049954;28;20071;-87
2021/06/02 09:18:05;;;;;;;2.05;0.98;;;;;;;25.29;22.52;98888.03;5044090;28;20049;-87
2021/06/02 09:20:33;;;;;;;2.25;0.80;;;;;;;25.51;24.02;98886.81;5046219;28;20122;-88
2021/06/02 09:23:02;;;;;;;1.42;1.02;;;;;;;25.61;21.21;98893.13;5041967;28;20472;-88
2021/06/02 09:25:31;;;;;;;1.33;0.97;;;;;;;25.30;19.81;98900.03;5048856;28;20041;-88
2021/06/02 09:27:58;;;;;;;2.77;0.97;;;;;;;25.33;20.22;98889.16;5051175;28;20068;-87
2021/06/02 09:30:31;;;;;;;2.60;1.08;;;;;;;25.69;21.59;98888.06;5050096;28;20049;-87
2021/06/02 09:36:06;;;;;;;6.10;1.15;;;;;;;25.76;22.77;98875.47;5044805;28;20131;-87
2021/06/02 09:38:32;;;;;;;4.77;1.10;;;;;;;26.02;22.96;98900.31;5048734;28;20052;-87
2021/06/02 09:41:01;;;;;;;2.25;1.08;;;;;;;26.07;19.86;98896.63;5049875;28;20299;-88
2021/06/02 09:43:34;;;;;;;1.45;1.20;;;;;;;26.38;24.51;98894.34;5042735;28;20477;-87
2021/06/02 09:46:05;;;;;;;3.40;1.23;;;;;;;26.21;20.63;98893.97;5048450;28;20067;-88
2021/06/02 09:48:57;;;;;;;2.65;0.90;;;;;;;26.24;19.95;98888.66;5048362;28;20045;-88
2021/06/02 09:51:47;;;;;;;4.97;1.00;;;;;;;26.32;18.25;98890.78;5052393;28;20052;-88
2021/06/02 09:54:22;;;;;;;2.08;1.40;;;;;;;26.31;19.94;98905.00;5044189;28;20049;-88
2021/06/02 09:56:55;;;;;;;1.90;0.85;;;;;;;25.54;19.77;98894.56;5043297;28;20481;-92
2021/06/02 09:59:25;;;;;;;8.25;1.73;;;;;;;25.52;20.41;98880.09;5037682;28;20052;-91
2021/06/02 10:01:57;;;;;;;2.25;1.00;;;;;;;25.93;21.39;98902.03;5053358;28;20452;-90
2021/06/02 10:04:33;;;;;;;2.60;1.08;;;;;;;26.19;19.86;98899.03;5033198;28;20046;-88
2021/06/02 10:07:00;;;;;;;9.68;1.40;;;;;;;26.22;22.00;98904.00;5033066;28;20055;-87
2021/06/02 10:09:29;;;;;;;1.63;0.90;;;;;;;26.31;20.74;98877.16;5033284;28;20497;-88
2021/06/02 10:12:08;;;;;;;2.03;1.17;;;;;;;26.53;20.73;98882.19;5040801;28;20055;-87
2021/06/02 10:15:07;;;;;;;2.65;1.00;;;;;;;26.14;19.92;98886.81;5043617;28;20068;-89
2021/06/02 10:18:29;;;;;;;2.90;1.02;;;;;;;26.52;18.50;98886.09;5053028;28;20567;-88
2021/06/02 10:21:04;;;;;;;3.10;0.93;;;;;;;26.44;18.59;98886.78;5046149;28;20422;-88
2021/06/02 10:23:40;;;;;;;2.15;0.82;;;;;;;26.53;20.64;98865.47;5048433;28;20507;-88
2021/06/02 10:29:35;;;;;;;4.03;1.08;;;;;;;26.98;18.83;98863.22;5052320;28;20087;-87
2021/06/02 10:32:02;;;;;;;3.17;0.90;;;;;;;26.86;18.69;98885.16;5050643;28;20053;-90
2021/06/02 10:34:58;;;;;;;;;;;;;;;;;;;;;
2021/06/02 10:38:07;;;;;;;1.52;1.17;;;;;;;27.13;20.06;98887.28;5057447;28;20052;-92
2021/06/02 10:40:36;;;;;;;1.98;1.17;;;;;;;27.03;20.69;98899.41;5056541;28;20045;-92
2021/06/02 10:43:09;;;;;;;2.78;0.80;;;;;;;27.02;19.15;98891.34;5056761;28;20083;-89
2021/06/02 10:45:39;;;;;;;3.45;1.00;;;;;;;27.20;21.89;98889.69;5057468;28;20177;-92
2021/06/02 10:48:06;;;;;;;4.05;1.10;;;;;;;27.08;21.77;98880.94;5056494;28;20501;-93
2021/06/02 10:50:39;;;;;;;2.30;0.95;;;;;;;27.27;21.23;98880.94;5056498;28;20053;-91
2021/06/02 10:53:28;;;;;;;1.15;0.80;;;;;;;27.64;20.35;98887.63;5056981;28;20382;-92
2021/06/02 10:55:56;;;;;;;6.28;1.10;;;;;;;27.73;19.67;98875.47;5048333;28;20060;-91
2021/06/02 10:58:45;;;;;;;1.85;0.90;;;;;;;27.59;18.70;98885.75;5057162;28;20550;-91
2021/06/02 11:04:34;;;;;;;1.60;0.95;;;;;;;27.63;19.11;98872.84;5056459;28;20063;-91
2021/06/02 11:07:31;;;;;;;4.07;1.00;;;;;;;27.40;18.04;98896.97;5056588;28;20136;-91
2021/06/02 11:10:11;;;;;;;1.10;1.00;;;;;;;27.10;17.52;98873.09;5056476;28;20106;-92
2021/06/02 11:13:02;;;;;;;1.02;1.00;;;;;;;26.97;18.46;98869.94;5056397;28;20095;-94
2021/06/02 11:15:46;;;;;;;4.20;1.00;;;;;;;27.37;18.53;98889.19;5056355;28;20484;-93
2021/06/02 11:24:55;;;;;;;1.70;0.93;;;;;;;27.33;15.96;98880.59;5075787;28;20404;-93
2021/06/02 11:27:38;;;;;;;0.85;0.85;;;;;;;27.15;17.81;98871.06;5075747;28;20063;-93
2021/06/02 11:33:35;;;;;;;2.67;1.20;;;;;;;27.17;16.10;98879.97;5041686;28;20409;-93
2021/06/02 11:36:07;;;;;;;2.65;1.17;;;;;;;27.24;15.98;98864.81;5056797;28;20405;-94
2021/06/02 11:38:38;;;;;;;2.83;1.10;;;;;;;27.58;16.14;98861.78;5056865;28;20056;-92
2021/06/02 11:44:28;;;;;;;2.70;0.90;;;;;;;27.70;16.36;98875.25;5056471;28;20048;-93
2021/06/02 11:46:55;;;;;;;1.73;1.00;;;;;;;27.67;16.16;98873.06;5056414;28;20053;-93
2021/06/02 11:56:10;;;;;;;0.93;0.80;;;;;;;27.85;15.04;98860.19;4994801;28;20112;-93
2021/06/02 11:58:37;;;;;;;3.50;1.17;;;;;;;28.11;15.77;98863.38;4995816;28;20084;-93
2021/06/02 12:01:05;;;;;;;2.17;1.10;;;;;;;27.99;16.73;98869.47;4996650;28;20046;-93
2021/06/02 12:03:31;;;;;;;3.45;0.90;;;;;;;28.27;17.11;98880.66;5030807;28;20065;-93
2021/06/02 12:05:58;;;;;;;1.05;0.80;;;;;;;28.32;15.75;98863.81;5055984;28;20075;-93
2021/06/02 12:08:42;;;;;;;0.90;0.80;;;;;;;28.55;16.91;98869.50;5054539;28;20048;-89
2021/06/02 12:11:10;;;;;;;4.15;0.75;;;;;;;28.49;16.08;98865.97;5054917;28;20045;-87
2021/06/02 12:13:38;;;;;;;1.15;0.90;;;;;;;28.43;13.65;98890.41;5053520;28;20051;-84
2021/06/02 12:16:09;;;;;;;1.65;1.00;;;;;;;28.18;14.58;98877.78;5053358;28;20053;-86
2021/06/02 12:18:37;;;;;;;2.80;0.90;;;;;;;28.31;15.81;98878.09;5053483;28;20045;-86
2021/06/02 12:21:10;;;;;;;0.60;0.57;;;;;;;28.50;13.25;98864.84;5048240;28;20049;-89
2021/06/02 12:23:55;;;;;;;2.72;0.88;;;;;;;28.42;13.85;98879.53;5053790;28;20170;-88
2021/06/02 12:26:30;;;;;;;1.83;0.80;;;;;;;28.30;13.80;98874.44;5051305;28;20049;-89
2021/06/02 12:28:59;;;;;;;0.80;0.60;;;;;;;28.30;13.17;98885.63;5052344;28;20045;-89
2021/06/02 12:31:43;;;;;;;2.23;0.90;;;;;;;28.26;12.28;98881.81;5052383;28;20052;-89
2021/06/02 12:34:12;;;;;;;2.97;1.40;;;;;;;28.58;13.69;98866.09;5037313;28;20048;-88
2021/06/02 12:36:47;;;;;;;0.80;0.77;;;;;;;28.90;11.76;98861.50;5046917;28;20459;-89
2021/06/02 12:39:15;;;;;;;1.60;0.80;;;;;;;29.22;12.54;98880.13;5044088;28;20072;-89
2021/06/02 12:41:44;;;;;;;2.33;0.80;;;;;;;29.50;12.17;98873.59;5046210;28;20056;-88
2021/06/02 12:44:11;;;;;;;1.23;0.68;;;;;;;29.68;12.73;98875.34;5044471;28;20053;-90
2021/06/02 12:46:40;;;;;;;1.45;0.70;;;;;;;29.31;12.06;98866.19;5052341;28;20124;-89
2021/06/02 12:49:08;;;;;;;1.98;0.80;;;;;;;28.94;12.43;98860.56;5052758;28;20057;-89
2021/06/02 12:51:35;;;;;;;2.55;1.30;;;;;;;29.24;13.43;98868.63;5052100;28;20049;-88
2021/06/02 12:54:02;;;;;;;1.27;0.80;;;;;;;28.31;14.63;98875.31;5051126;28;20048;-92
2021/06/02 12:56:28;;;;;;;1.65;0.77;;;;;;;28.89;12.19;98857.88;5041603;28;20053;-88
2021/06/02 12:58:57;;;;;;;1.15;0.75;;;;;;;28.78;13.25;98857.28;5047161;28;20562;-90
2021/06/02 13:01:30;;;;;;;2.58;0.70;;;;;;;28.81;14.86;98882.97;5049237;28;20048;-90
2021/06/02 13:03:59;;;;;;;0.73;0.70;;;;;;;28.92;13.64;98864.81;5049052;28;20037;-90
2021/06/02 13:06:27;;;;;;;2.10;1.10;;;;;;;28.95;14.23;98861.38;5046483;28;20575;-89
2021/06/02 13:08:53;;;;;;;3.83;1.10;;;;;;;28.96;13.82;98849.88;5045799;28;20057;-90
2021/06/02 13:11:26;;;;;;;1.38;0.90;;;;;;;28.91;14.34;98863.16;5050876;28;20060;-89
2021/06/02 13:13:53;;;;;;;6.82;1.00;;;;;;;28.83;13.40;98859.16;5045529;28;20049;-90
2021/06/02 13:16:21;;;;;;;5.68;0.80;;;;;;;29.08;15.38;98859.69;5049530;28;20155;-89
2021/06/02 13:19:01;;;;;;;1.00;0.70;;;;;;;29.19;13.92;98863.94;5046670;28;20136;-91
2021/06/02 13:21:30;;;;;;;3.67;0.60;;;;;;;29.27;13.19;98857.59;5051740;28;20048;-90
2021/06/02 13:24:12;;;;;;;1.20;0.75;;;;;;;29.45;15.05;98866.97;5036783;28;20048;-90
2021/06/02 13:26:39;;;;;;;2.58;0.80;;;;;;;29.49;14.04;98869.94;5046937;28;20100;-90
2021/06/02 13:29:10;;;;;;;1.23;0.90;;;;;;;29.76;12.96;98854.16;5052018;28;20475;-90
2021/06/02 13:31:38;;;;;;;0.73;0.70;;;;;;;29.72;15.74;98851.19;5045676;28;20522;-90
2021/06/02 13:34:07;;;;;;;1.55;0.85;;;;;;;29.52;14.55;98869.31;5046690;28;20064;-90
2021/06/02 13:36:40;;;;;;;2.60;1.03;;;;;;;29.61;13.27;98872.16;5050085;28;20052;-89
2021/06/02 13:39:11;;;;;;;0.93;0.80;;;;;;;29.70;14.49;98861.03;5043981;28;20291;-90
2021/06/02 13:41:38;;;;;;;1.42;0.93;;;;;;;29.91;15.04;98878.16;5051385;28;20053;-90
2021/06/02 13:44:06;;;;;;;3.85;1.20;;;;;;;30.46;13.99;98866.59;5050560;28;20053;-89
2021/06/02 13:46:33;;;;;;;0.80;0.70;;;;;;;30.07;13.11;98856.19;5051513;28;20048;-89